Summary for RAINWISE1

Rainwise Factory, Bar Harbor, ME 04609
Join the PWSweather.com Network
View data in metric units
Latest Conditions
Updated 12:15:00 PM EDT Monday, Jul 28, 2014
Data Currently Today's Max Today's Min Today's Average
Temperature 64.9°F18.3°C 68.2°F20.1°C 63.2°F17.3°C 64.5°F18.1°C
Dew Point 64.9°F18.3°C 68.2°F20.1°C 63.2°F17.3°C 64.6°F18.1°C
Winds 2.1 mph SSE3.4 kmh SSE 5.3 mph SSW8.5 kmh SSW CalmCalm 1.6 mph2.6 kmh
Wind Gusts 5.7 mph9.2 kmh 8.5 mph13.7 kmh -- 3.4 mph5.5 kmh
Humidity 100% 100% 100% 100%
Pressure 29.77 in1008.1 mb 29.81 in1009.5 mb 29.76 in1007.8 mb 29.78 in1008.5 mb
Precipitation 0.03 in0.8 mm - - 0.00 in0.0 mm
Trends
 
Station Profile
Rainwise FactoryBar Harbor, ME 04609

Lat: 44.39, Lon: -68.208
Elevation: 29
Station Type: Rainwise MK-III

Detailed Summary for Mon, Jul 28, 2014
Hour (EDT) Temperature Dew Point Humidity Winds Wind Gusts Pressure Precip Precip Rate Daily Precip Total
12:15 PM 64.9°F18.3°C 64.9°F18.3°C 100% 2.1 mph SSE3.4 kmh SSE 5.7 mph9.2 kmh 29.77 in1008.1 mb 0.00 in0.0 mm 0.00 in/hr0.0 mm/hr 0.03 in0.8 mm
12:10 PM 65.6°F18.7°C 65.6°F18.7°C 100% 3.2 mph ESE5.1 kmh ESE 7.7 mph12.4 kmh 29.77 in1008.1 mb 0.00 in0.0 mm 0.00 in/hr0.0 mm/hr 0.03 in0.8 mm
12:05 PM 66.8°F19.3°C 66.8°F19.3°C 100% 4.5 mph SSE7.2 kmh SSE 8.5 mph13.7 kmh 29.77 in1008.1 mb 0.00 in0.0 mm 0.00 in/hr0.0 mm/hr 0.03 in0.8 mm
12:00 PM 67.8°F19.9°C 67.8°F19.9°C 100% 4.6 mph S7.4 kmh S 7.5 mph12.1 kmh 29.77 in1008.1 mb 0.00 in0.0 mm 0.00 in/hr0.0 mm/hr 0.03 in0.8 mm
11:55 AM 68.2°F20.1°C 68.2°F20.1°C 100% 3.4 mph SSE5.5 kmh SSE 5.4 mph8.7 kmh 29.77 in1008.1 mb 0.00 in0.0 mm 0.00 in/hr0.0 mm/hr 0.03 in0.8 mm
11:50 AM 68.1°F20.1°C 68.1°F20.1°C 100% 2.4 mph SE3.9 kmh SE 6.0 mph9.7 kmh 29.76 in1007.8 mb 0.00 in0.0 mm 0.00 in/hr0.0 mm/hr 0.03 in0.8 mm
11:45 AM 67.7°F19.8°C 67.7°F19.8°C 100% 1.7 mph ESE2.7 kmh ESE 3.5 mph5.6 kmh 29.76 in1007.8 mb 0.00 in0.0 mm 0.00 in/hr0.0 mm/hr 0.03 in0.8 mm
11:40 AM 67.1°F19.5°C 67.1°F19.5°C 100% 1.2 mph ESE1.9 kmh ESE 4.7 mph7.6 kmh 29.76 in1007.8 mb 0.00 in0.0 mm 0.00 in/hr0.0 mm/hr 0.03 in0.8 mm
11:35 AM 66.9°F19.4°C 66.9°F19.4°C 100% 1.6 mph ESE2.6 kmh ESE 4.4 mph7.1 kmh 29.76 in1007.8 mb 0.00 in0.0 mm 0.00 in/hr0.0 mm/hr 0.03 in0.8 mm
11:30 AM 67.1°F19.5°C 67.1°F19.5°C 100% 1.4 mph SSE2.3 kmh SSE 3.2 mph5.1 kmh 29.76 in1007.8 mb 0.00 in0.0 mm 0.00 in/hr0.0 mm/hr 0.03 in0.8 mm
11:25 AM 67.1°F19.5°C 67.1°F19.5°C 100% 2.1 mph SSE3.4 kmh SSE 4.0 mph6.4 kmh 29.76 in1007.8 mb 0.00 in0.0 mm 0.00 in/hr0.0 mm/hr 0.03 in0.8 mm
11:20 AM 66.4°F19.1°C 66.4°F19.1°C 100% 1.7 mph S2.7 kmh S 5.0 mph8.0 kmh 29.76 in1007.8 mb 0.00 in0.0 mm 0.00 in/hr0.0 mm/hr 0.03 in0.8 mm
11:15 AM 65.9°F18.8°C 65.9°F18.8°C 100% 0.4 mph E0.6 kmh E 2.7 mph4.3 kmh 29.76 in1007.8 mb 0.00 in0.0 mm 0.00 in/hr0.0 mm/hr 0.03 in0.8 mm
11:10 AM 66.3°F19.1°C 66.3°F19.1°C 100% 1.0 mph ENE1.6 kmh ENE 3.2 mph5.1 kmh 29.76 in1007.8 mb 0.00 in0.0 mm 0.00 in/hr0.0 mm/hr 0.03 in0.8 mm
11:05 AM 66.4°F19.1°C 66.4°F19.1°C 100% 1.4 mph E2.3 kmh E 4.0 mph6.4 kmh 29.76 in1007.8 mb 0.00 in0.0 mm 0.00 in/hr0.0 mm/hr 0.03 in0.8 mm
11:00 AM 66.2°F19.0°C 66.2°F19.0°C 100% 0.8 mph SSE1.3 kmh SSE 2.7 mph4.3 kmh 29.77 in1008.1 mb 0.00 in0.0 mm 0.00 in/hr0.0 mm/hr 0.03 in0.8 mm
10:55 AM 66.2°F19.0°C 66.2°F19.0°C 100% 1.3 mph SSE2.1 kmh SSE 3.7 mph6.0 kmh 29.77 in1008.1 mb 0.00 in0.0 mm 0.00 in/hr0.0 mm/hr 0.03 in0.8 mm
10:50 AM 66.7°F19.3°C 66.7°F19.3°C 100% 3.7 mph SSE6.0 kmh SSE 7.9 mph12.7 kmh 29.76 in1007.8 mb 0.00 in0.0 mm 0.00 in/hr0.0 mm/hr 0.03 in0.8 mm
10:45 AM 67.1°F19.5°C 67.1°F19.5°C 100% 3.8 mph SSE6.1 kmh SSE 6.5 mph10.5 kmh 29.76 in1007.8 mb 0.00 in0.0 mm 0.00 in/hr0.0 mm/hr 0.03 in0.8 mm
10:40 AM 67.0°F19.4°C 67.0°F19.4°C 100% 1.9 mph ESE3.1 kmh ESE 4.2 mph6.8 kmh 29.76 in1007.8 mb 0.00 in0.0 mm 0.00 in/hr0.0 mm/hr 0.03 in0.8 mm
10:35 AM 67.0°F19.4°C 67.0°F19.4°C 100% 2.4 mph S3.9 kmh S 4.7 mph7.6 kmh 29.76 in1007.8 mb 0.00 in0.0 mm 0.00 in/hr0.0 mm/hr 0.03 in0.8 mm
10:30 AM 67.0°F19.4°C 67.0°F19.4°C 100% 1.6 mph SSE2.6 kmh SSE 3.2 mph5.1 kmh 29.77 in1008.1 mb 0.00 in0.0 mm 0.00 in/hr0.0 mm/hr 0.03 in0.8 mm
10:25 AM 66.6°F19.2°C 66.6°F19.2°C 100% 0.7 mph S1.1 kmh S 2.7 mph4.3 kmh 29.77 in1008.1 mb 0.00 in0.0 mm 0.00 in/hr0.0 mm/hr 0.03 in0.8 mm
10:20 AM 65.8°F18.8°C 65.8°F18.8°C 100% 0.6 mph SSE1.0 kmh SSE 2.2 mph3.5 kmh 29.77 in1008.1 mb 0.00 in0.0 mm 0.00 in/hr0.0 mm/hr 0.03 in0.8 mm
10:15 AM 65.2°F18.4°C 65.2°F18.4°C 100% 0.9 mph SSE1.4 kmh SSE 2.7 mph4.3 kmh 29.77 in1008.1 mb 0.00 in0.0 mm 0.00 in/hr0.0 mm/hr 0.03 in0.8 mm
10:10 AM 65.0°F18.3°C 65.0°F18.3°C 100% 0.7 mph SE1.1 kmh SE 3.0 mph4.8 kmh 29.77 in1008.1 mb 0.00 in0.0 mm 0.00 in/hr0.0 mm/hr 0.03 in0.8 mm
10:05 AM 65.0°F18.3°C 65.0°F18.3°C 100% 2.7 mph S4.3 kmh S 5.4 mph8.7 kmh 29.78 in1008.5 mb 0.00 in0.0 mm 0.00 in/hr0.0 mm/hr 0.03 in0.8 mm
10:00 AM 65.1°F18.4°C 65.1°F18.4°C 100% 2.3 mph SSW3.7 kmh SSW 4.0 mph6.4 kmh 29.78 in1008.5 mb 0.00 in0.0 mm 0.00 in/hr0.0 mm/hr 0.03 in0.8 mm
09:55 AM 65.2°F18.4°C 65.2°F18.4°C 100% 1.5 mph SSE2.4 kmh SSE 2.7 mph4.3 kmh 29.78 in1008.5 mb 0.00 in0.0 mm 0.00 in/hr0.0 mm/hr 0.03 in0.8 mm
09:50 AM 65.0°F18.3°C 65.0°F18.3°C 100% 0.5 mph ESE0.8 kmh ESE 2.2 mph3.5 kmh 29.78 in1008.5 mb 0.00 in0.0 mm 0.00 in/hr0.0 mm/hr 0.03 in0.8 mm
09:45 AM 64.9°F18.3°C 64.9°F18.3°C 100% 0.9 mph SE1.4 kmh SE 2.7 mph4.3 kmh 29.78 in1008.5 mb 0.00 in0.0 mm 0.00 in/hr0.0 mm/hr 0.03 in0.8 mm
09:40 AM 65.4°F18.6°C 65.4°F18.6°C 100% 2.6 mph SSE4.2 kmh SSE 4.9 mph7.9 kmh 29.78 in1008.5 mb 0.00 in0.0 mm 0.00 in/hr0.0 mm/hr 0.03 in0.8 mm
09:35 AM 65.7°F18.7°C 65.7°F18.7°C 100% 3.2 mph SSE5.1 kmh SSE 5.5 mph8.9 kmh 29.78 in1008.5 mb 0.00 in0.0 mm 0.00 in/hr0.0 mm/hr 0.03 in0.8 mm
09:30 AM 65.8°F18.8°C 65.8°F18.8°C 100% 3.1 mph S5.0 kmh S 5.7 mph9.2 kmh 29.78 in1008.5 mb 0.00 in0.0 mm 0.00 in/hr0.0 mm/hr 0.03 in0.8 mm
09:25 AM 65.6°F18.7°C 65.6°F18.7°C 100% 2.2 mph SSE3.5 kmh SSE 4.2 mph6.8 kmh 29.78 in1008.5 mb 0.00 in0.0 mm 0.00 in/hr0.0 mm/hr 0.03 in0.8 mm
09:20 AM 65.2°F18.4°C 65.2°F18.4°C 100% 0.9 mph SE1.4 kmh SE 2.2 mph3.5 kmh 29.78 in1008.5 mb 0.00 in0.0 mm 0.00 in/hr0.0 mm/hr 0.03 in0.8 mm
09:15 AM 64.8°F18.2°C 64.8°F18.2°C 100% 1.1 mph ESE1.8 kmh ESE 3.5 mph5.6 kmh 29.78 in1008.5 mb 0.00 in0.0 mm 0.00 in/hr0.0 mm/hr 0.03 in0.8 mm
09:10 AM 64.5°F18.1°C 64.5°F18.1°C 100% 0.8 mph ENE1.3 kmh ENE 3.0 mph4.8 kmh 29.78 in1008.5 mb 0.00 in0.0 mm 0.00 in/hr0.0 mm/hr 0.03 in0.8 mm
09:05 AM 64.5°F18.1°C 64.5°F18.1°C 100% 1.9 mph ESE3.1 kmh ESE 4.2 mph6.8 kmh 29.78 in1008.5 mb 0.00 in0.0 mm 0.00 in/hr0.0 mm/hr 0.03 in0.8 mm
09:00 AM 64.8°F18.2°C 64.8°F18.2°C 100% 1.9 mph E3.1 kmh E 4.2 mph6.8 kmh 29.78 in1008.5 mb 0.00 in0.0 mm 0.00 in/hr0.0 mm/hr 0.03 in0.8 mm
08:55 AM 64.9°F18.3°C 64.9°F18.3°C 100% 1.8 mph E2.9 kmh E 3.7 mph6.0 kmh 29.78 in1008.5 mb 0.00 in0.0 mm 0.00 in/hr0.0 mm/hr 0.03 in0.8 mm
08:50 AM 64.8°F18.2°C 64.8°F18.2°C 100% 1.5 mph ESE2.4 kmh ESE 4.0 mph6.4 kmh 29.79 in1008.8 mb 0.00 in0.0 mm 0.00 in/hr0.0 mm/hr 0.03 in0.8 mm
08:45 AM 64.6°F18.1°C 64.6°F18.1°C 100% 1.0 mph SSE1.6 kmh SSE 3.2 mph5.1 kmh 29.79 in1008.8 mb 0.00 in0.0 mm 0.00 in/hr0.0 mm/hr 0.03 in0.8 mm
08:40 AM 64.6°F18.1°C 64.6°F18.1°C 100% 2.0 mph SSE3.2 kmh SSE 4.0 mph6.4 kmh 29.79 in1008.8 mb 0.00 in0.0 mm 0.00 in/hr0.0 mm/hr 0.03 in0.8 mm
08:35 AM 64.9°F18.3°C 64.9°F18.3°C 100% 2.4 mph SSE3.9 kmh SSE 4.4 mph7.1 kmh 29.78 in1008.5 mb 0.00 in0.0 mm 0.00 in/hr0.0 mm/hr 0.03 in0.8 mm
08:30 AM 65.0°F18.3°C 65.0°F18.3°C 100% 2.4 mph SSE3.9 kmh SSE 3.7 mph6.0 kmh 29.78 in1008.5 mb 0.00 in0.0 mm 0.00 in/hr0.0 mm/hr 0.03 in0.8 mm
08:25 AM 65.0°F18.3°C 65.0°F18.3°C 100% 1.9 mph SE3.1 kmh SE 4.4 mph7.1 kmh 29.79 in1008.8 mb 0.00 in0.0 mm 0.00 in/hr0.0 mm/hr 0.03 in0.8 mm
08:20 AM 65.0°F18.3°C 65.0°F18.3°C 100% 1.4 mph SSE2.3 kmh SSE 3.2 mph5.1 kmh 29.79 in1008.8 mb 0.00 in0.0 mm 0.00 in/hr0.0 mm/hr 0.03 in0.8 mm
08:15 AM 64.9°F18.3°C 64.9°F18.3°C 100% 3.0 mph S4.8 kmh S 4.2 mph6.8 kmh 29.79 in1008.8 mb 0.00 in0.0 mm 0.00 in/hr0.0 mm/hr 0.03 in0.8 mm
08:10 AM 64.7°F18.2°C 64.7°F18.2°C 100% 1.8 mph SSE2.9 kmh SSE 3.2 mph5.1 kmh 29.79 in1008.8 mb 0.00 in0.0 mm 0.00 in/hr0.0 mm/hr 0.03 in0.8 mm
08:05 AM 64.5°F18.1°C 64.5°F18.1°C 100% 2.1 mph SSW3.4 kmh SSW 3.5 mph5.6 kmh 29.79 in1008.8 mb 0.00 in0.0 mm 0.00 in/hr0.0 mm/hr 0.03 in0.8 mm
08:00 AM 64.5°F18.1°C 64.5°F18.1°C 100% 2.4 mph SSW3.9 kmh SSW 4.2 mph6.8 kmh 29.79 in1008.8 mb 0.00 in0.0 mm 0.00 in/hr0.0 mm/hr 0.03 in0.8 mm
07:55 AM 64.5°F18.1°C 64.5°F18.1°C 100% 2.1 mph S3.4 kmh S 4.0 mph6.4 kmh 29.79 in1008.8 mb 0.00 in0.0 mm 0.00 in/hr0.0 mm/hr 0.03 in0.8 mm
07:50 AM 64.5°F18.1°C 64.5°F18.1°C 100% 2.4 mph SSE3.9 kmh SSE 4.9 mph7.9 kmh 29.78 in1008.5 mb 0.00 in0.0 mm 0.00 in/hr0.0 mm/hr 0.03 in0.8 mm
07:45 AM 64.5°F18.1°C 64.5°F18.1°C 100% 2.3 mph SSE3.7 kmh SSE 4.4 mph7.1 kmh 29.78 in1008.5 mb 0.00 in0.0 mm 0.00 in/hr0.0 mm/hr 0.03 in0.8 mm
07:40 AM 64.5°F18.1°C 64.5°F18.1°C 100% 3.3 mph SSW5.3 kmh SSW 5.0 mph8.0 kmh 29.79 in1008.8 mb 0.00 in0.0 mm 0.00 in/hr0.0 mm/hr 0.03 in0.8 mm
07:35 AM 64.5°F18.1°C 64.5°F18.1°C 100% 1.7 mph SSE2.7 kmh SSE 2.6 mph4.2 kmh 29.79 in1008.8 mb 0.00 in0.0 mm 0.00 in/hr0.0 mm/hr 0.03 in0.8 mm
07:30 AM 64.5°F18.1°C 64.5°F18.1°C 100% 1.6 mph S2.6 kmh S 3.0 mph4.8 kmh 29.79 in1008.8 mb 0.00 in0.0 mm 0.00 in/hr0.0 mm/hr 0.03 in0.8 mm
07:25 AM 64.7°F18.2°C 64.7°F18.2°C 100% 1.9 mph SSE3.1 kmh SSE 3.0 mph4.8 kmh 29.79 in1008.8 mb 0.00 in0.0 mm 0.00 in/hr0.0 mm/hr 0.03 in0.8 mm
07:20 AM 64.5°F18.1°C 64.5°F18.1°C 100% 2.3 mph S3.7 kmh S 3.5 mph5.6 kmh 29.79 in1008.8 mb 0.00 in0.0 mm 0.00 in/hr0.0 mm/hr 0.03 in0.8 mm
07:15 AM 64.5°F18.1°C 64.5°F18.1°C 100% 2.0 mph S3.2 kmh S 3.5 mph5.6 kmh 29.79 in1008.8 mb 0.00 in0.0 mm 0.00 in/hr0.0 mm/hr 0.03 in0.8 mm
07:10 AM 64.5°F18.1°C 64.5°F18.1°C 100% 1.3 mph SSW2.1 kmh SSW 3.5 mph5.6 kmh 29.79 in1008.8 mb 0.00 in0.0 mm 0.00 in/hr0.0 mm/hr 0.03 in0.8 mm
07:05 AM 64.5°F18.1°C 64.5°F18.1°C 100% 0.8 mph SSE1.3 kmh SSE 1.8 mph2.9 kmh 29.79 in1008.8 mb 0.00 in0.0 mm 0.00 in/hr0.0 mm/hr 0.03 in0.8 mm
07:00 AM 64.4°F18.0°C 64.4°F18.0°C 100% 0.2 mph SSE0.3 kmh SSE 1.6 mph2.6 kmh 29.79 in1008.8 mb 0.00 in0.0 mm 0.00 in/hr0.0 mm/hr 0.03 in0.8 mm
06:55 AM 64.4°F18.0°C 64.4°F18.0°C 100% Calm Calm -- 29.79 in1008.8 mb 0.00 in0.0 mm 0.00 in/hr0.0 mm/hr 0.03 in0.8 mm
06:50 AM 64.3°F17.9°C 64.3°F17.9°C 100% Calm Calm -- 29.78 in1008.5 mb 0.00 in0.0 mm 0.00 in/hr0.0 mm/hr 0.03 in0.8 mm
06:45 AM 64.2°F17.9°C 64.2°F17.9°C 100% 0.3 mph SSE0.5 kmh SSE 1.8 mph2.9 kmh 29.79 in1008.8 mb 0.00 in0.0 mm 0.00 in/hr0.0 mm/hr 0.03 in0.8 mm
06:40 AM 64.2°F17.9°C 64.2°F17.9°C 100% 0.9 mph SSE1.4 kmh SSE 3.0 mph4.8 kmh 29.79 in1008.8 mb 0.00 in0.0 mm 0.00 in/hr0.0 mm/hr 0.03 in0.8 mm
06:35 AM 64.2°F17.9°C 64.2°F17.9°C 100% 1.4 mph S2.3 kmh S 3.2 mph5.1 kmh 29.79 in1008.8 mb 0.00 in0.0 mm 0.00 in/hr0.0 mm/hr 0.03 in0.8 mm
06:30 AM 64.2°F17.9°C 64.2°F17.9°C 100% 1.6 mph SSW2.6 kmh SSW 2.6 mph4.2 kmh 29.80 in1009.1 mb 0.00 in0.0 mm 0.00 in/hr0.0 mm/hr 0.03 in0.8 mm
06:25 AM 64.2°F17.9°C 64.2°F17.9°C 100% 0.2 mph S0.3 kmh S 1.6 mph2.6 kmh 29.80 in1009.1 mb 0.00 in0.0 mm 0.00 in/hr0.0 mm/hr 0.03 in0.8 mm
06:20 AM 64.2°F17.9°C 64.2°F17.9°C 100% 0.5 mph S0.8 kmh S 1.8 mph2.9 kmh 29.79 in1008.8 mb 0.00 in0.0 mm 0.00 in/hr0.0 mm/hr 0.03 in0.8 mm
06:15 AM 64.2°F17.9°C 64.2°F17.9°C 100% Calm Calm 1.1 mph1.8 kmh 29.80 in1009.1 mb 0.00 in0.0 mm 0.00 in/hr0.0 mm/hr 0.03 in0.8 mm
06:10 AM 64.2°F17.9°C 64.2°F17.9°C 100% 0.6 mph S1.0 kmh S 2.1 mph3.4 kmh 29.79 in1008.8 mb 0.00 in0.0 mm 0.00 in/hr0.0 mm/hr 0.03 in0.8 mm
06:05 AM 64.1°F17.8°C 64.1°F17.8°C 100% 1.7 mph S2.7 kmh S 2.2 mph3.5 kmh 29.79 in1008.8 mb 0.00 in0.0 mm 0.00 in/hr0.0 mm/hr 0.03 in0.8 mm
06:00 AM 64.0°F17.8°C 64.0°F17.8°C 100% 0.9 mph SSE1.4 kmh SSE 2.2 mph3.5 kmh 29.79 in1008.8 mb 0.00 in0.0 mm 0.00 in/hr0.0 mm/hr 0.03 in0.8 mm
05:55 AM 64.0°F17.8°C 64.0°F17.8°C 100% Calm Calm -- 29.79 in1008.8 mb 0.00 in0.0 mm 0.00 in/hr0.0 mm/hr 0.03 in0.8 mm
05:50 AM 64.0°F17.8°C 64.0°F17.8°C 100% 0.5 mph SSE0.8 kmh SSE 2.2 mph3.5 kmh 29.79 in1008.8 mb 0.00 in0.0 mm 0.00 in/hr0.0 mm/hr 0.03 in0.8 mm
05:45 AM 64.0°F17.8°C 64.0°F17.8°C 100% 0.0 mph SSE0.0 kmh SSE 1.3 mph2.1 kmh 29.78 in1008.5 mb 0.00 in0.0 mm 0.00 in/hr0.0 mm/hr 0.03 in0.8 mm
05:40 AM 64.0°F17.8°C 64.0°F17.8°C 100% 0.4 mph SSE0.6 kmh SSE 1.6 mph2.6 kmh 29.79 in1008.8 mb 0.00 in0.0 mm 0.00 in/hr0.0 mm/hr 0.03 in0.8 mm
05:35 AM 64.0°F17.8°C 64.0°F17.8°C 100% Calm Calm -- 29.78 in1008.5 mb 0.00 in0.0 mm 0.00 in/hr0.0 mm/hr 0.03 in0.8 mm
05:30 AM 64.0°F17.8°C 64.0°F17.8°C 100% 0.2 mph SSE0.3 kmh SSE 1.3 mph2.1 kmh 29.78 in1008.5 mb 0.00 in0.0 mm 0.00 in/hr0.0 mm/hr 0.03 in0.8 mm
05:25 AM 64.0°F17.8°C 64.0°F17.8°C 100% 0.4 mph SSE0.6 kmh SSE 1.3 mph2.1 kmh 29.79 in1008.8 mb 0.00 in0.0 mm 0.00 in/hr0.0 mm/hr 0.03 in0.8 mm
05:20 AM 64.0°F17.8°C 64.0°F17.8°C 100% 0.4 mph SE0.6 kmh SE 2.6 mph4.2 kmh 29.78 in1008.5 mb 0.00 in0.0 mm 0.00 in/hr0.0 mm/hr 0.03 in0.8 mm
05:15 AM 64.0°F17.8°C 64.0°F17.8°C 100% 0.1 mph ESE0.2 kmh ESE 1.6 mph2.6 kmh 29.78 in1008.5 mb 0.00 in0.0 mm 0.00 in/hr0.0 mm/hr 0.03 in0.8 mm
05:10 AM 64.0°F17.8°C 64.0°F17.8°C 100% 0.5 mph ESE0.8 kmh ESE 2.6 mph4.2 kmh 29.78 in1008.5 mb 0.00 in0.0 mm 0.00 in/hr0.0 mm/hr 0.02 in0.5 mm
05:05 AM 64.0°F17.8°C 64.0°F17.8°C 100% 1.4 mph SSE2.3 kmh SSE 2.6 mph4.2 kmh 29.78 in1008.5 mb 0.00 in0.0 mm 0.00 in/hr0.0 mm/hr 0.02 in0.5 mm
05:00 AM 64.0°F17.8°C 64.0°F17.8°C 100% 0.6 mph S1.0 kmh S 2.2 mph3.5 kmh 29.77 in1008.1 mb 0.00 in0.0 mm 0.00 in/hr0.0 mm/hr 0.02 in0.5 mm
04:55 AM 64.0°F17.8°C 64.0°F17.8°C 100% 1.0 mph SSW1.6 kmh SSW 4.0 mph6.4 kmh 29.78 in1008.5 mb 0.00 in0.0 mm 0.00 in/hr0.0 mm/hr 0.02 in0.5 mm
04:50 AM 64.0°F17.8°C 64.0°F17.8°C 100% 2.6 mph S4.2 kmh S 5.0 mph8.0 kmh 29.78 in1008.5 mb 0.00 in0.0 mm 0.00 in/hr0.0 mm/hr 0.02 in0.5 mm
04:45 AM 64.0°F17.8°C 64.0°F17.8°C 100% 2.7 mph S4.3 kmh S 4.7 mph7.6 kmh 29.77 in1008.1 mb 0.00 in0.0 mm 0.00 in/hr0.0 mm/hr 0.02 in0.5 mm
04:40 AM 64.0°F17.8°C 64.0°F17.8°C 100% 2.1 mph SSW3.4 kmh SSW 3.2 mph5.1 kmh 29.77 in1008.1 mb 0.00 in0.0 mm 0.00 in/hr0.0 mm/hr 0.02 in0.5 mm
04:35 AM 63.9°F17.7°C 63.9°F17.7°C 100% 2.2 mph SSW3.5 kmh SSW 3.5 mph5.6 kmh 29.76 in1007.8 mb 0.00 in0.0 mm 0.00 in/hr0.0 mm/hr 0.02 in0.5 mm
04:30 AM 63.7°F17.6°C 63.7°F17.6°C 100% 2.3 mph S3.7 kmh S 3.7 mph6.0 kmh 29.76 in1007.8 mb 0.00 in0.0 mm 0.00 in/hr0.0 mm/hr 0.02 in0.5 mm
04:25 AM 63.6°F17.6°C 63.6°F17.6°C 100% 2.8 mph SSE4.5 kmh SSE 4.2 mph6.8 kmh 29.77 in1008.1 mb 0.00 in0.0 mm 0.00 in/hr0.0 mm/hr 0.02 in0.5 mm
04:20 AM 63.5°F17.5°C 63.5°F17.5°C 100% 1.5 mph SSE2.4 kmh SSE 3.0 mph4.8 kmh 29.77 in1008.1 mb 0.00 in0.0 mm 0.00 in/hr0.0 mm/hr 0.02 in0.5 mm
04:15 AM 63.5°F17.5°C 63.5°F17.5°C 100% 1.4 mph S2.3 kmh S 4.0 mph6.4 kmh 29.77 in1008.1 mb 0.00 in0.0 mm 0.00 in/hr0.0 mm/hr 0.02 in0.5 mm
04:10 AM 63.5°F17.5°C 63.5°F17.5°C 100% 2.3 mph SSW3.7 kmh SSW 3.2 mph5.1 kmh 29.78 in1008.5 mb 0.00 in0.0 mm 0.00 in/hr0.0 mm/hr 0.02 in0.5 mm
04:05 AM 63.5°F17.5°C 63.5°F17.5°C 100% 2.1 mph SSW3.4 kmh SSW 3.2 mph5.1 kmh 29.78 in1008.5 mb 0.00 in0.0 mm 0.00 in/hr0.0 mm/hr 0.02 in0.5 mm
04:00 AM 63.5°F17.5°C 63.5°F17.5°C 100% 1.8 mph SSW2.9 kmh SSW 2.7 mph4.3 kmh 29.77 in1008.1 mb 0.00 in0.0 mm 0.00 in/hr0.0 mm/hr 0.02 in0.5 mm
03:55 AM 63.5°F17.5°C 63.5°F17.5°C 100% 2.4 mph SSW3.9 kmh SSW 4.0 mph6.4 kmh 29.78 in1008.5 mb 0.00 in0.0 mm 0.00 in/hr0.0 mm/hr 0.02 in0.5 mm
03:50 AM 63.6°F17.6°C 63.6°F17.6°C 100% 3.3 mph SSW5.3 kmh SSW 4.4 mph7.1 kmh 29.78 in1008.5 mb 0.00 in0.0 mm 0.00 in/hr0.0 mm/hr 0.02 in0.5 mm
03:45 AM 63.7°F17.6°C 63.7°F17.6°C 100% 3.4 mph SSW5.5 kmh SSW 5.0 mph8.0 kmh 29.77 in1008.1 mb 0.00 in0.0 mm 0.00 in/hr0.0 mm/hr 0.02 in0.5 mm
03:40 AM 63.7°F17.6°C 63.7°F17.6°C 100% 2.8 mph S4.5 kmh S 4.4 mph7.1 kmh 29.77 in1008.1 mb 0.00 in0.0 mm 0.00 in/hr0.0 mm/hr 0.02 in0.5 mm
03:35 AM 63.7°F17.6°C 63.7°F17.6°C 100% 2.4 mph SSW3.9 kmh SSW 4.0 mph6.4 kmh 29.77 in1008.1 mb 0.00 in0.0 mm 0.00 in/hr0.0 mm/hr 0.02 in0.5 mm
03:30 AM 63.7°F17.6°C 63.7°F17.6°C 100% 2.5 mph S4.0 kmh S 4.0 mph6.4 kmh 29.77 in1008.1 mb 0.00 in0.0 mm 0.00 in/hr0.0 mm/hr 0.02 in0.5 mm
03:25 AM 63.7°F17.6°C 63.7°F17.6°C 100% 2.6 mph S4.2 kmh S 4.7 mph7.6 kmh 29.77 in1008.1 mb 0.00 in0.0 mm 0.00 in/hr0.0 mm/hr 0.02 in0.5 mm
03:20 AM 63.7°F17.6°C 63.7°F17.6°C 100% 2.3 mph SSW3.7 kmh SSW 3.2 mph5.1 kmh 29.77 in1008.1 mb 0.00 in0.0 mm 0.00 in/hr0.0 mm/hr 0.02 in0.5 mm
03:15 AM 63.9°F17.7°C 63.9°F17.7°C 100% 2.5 mph SSW4.0 kmh SSW 4.0 mph6.4 kmh 29.78 in1008.5 mb 0.00 in0.0 mm 0.00 in/hr0.0 mm/hr 0.02 in0.5 mm
03:10 AM 64.0°F17.8°C 64.0°F17.8°C 100% 1.2 mph SSW1.9 kmh SSW 4.0 mph6.4 kmh 29.77 in1008.1 mb 0.00 in0.0 mm 0.00 in/hr0.0 mm/hr 0.02 in0.5 mm
03:05 AM 64.0°F17.8°C 64.0°F17.8°C 100% 0.6 mph SW1.0 kmh SW 2.6 mph4.2 kmh 29.77 in1008.1 mb 0.00 in0.0 mm 0.00 in/hr0.0 mm/hr 0.02 in0.5 mm
03:00 AM 64.0°F17.8°C 64.0°F17.8°C 100% 3.1 mph SSW5.0 kmh SSW 4.9 mph7.9 kmh 29.77 in1008.1 mb 0.00 in0.0 mm 0.00 in/hr0.0 mm/hr 0.02 in0.5 mm
02:55 AM 64.0°F17.8°C 64.0°F17.8°C 100% 3.8 mph SSW6.1 kmh SSW 7.0 mph11.3 kmh 29.78 in1008.5 mb 0.00 in0.0 mm 0.00 in/hr0.0 mm/hr 0.02 in0.5 mm
02:50 AM 64.0°F17.8°C 64.0°F17.8°C 100% 5.3 mph SSW8.5 kmh SSW 7.9 mph12.7 kmh 29.78 in1008.5 mb 0.00 in0.0 mm 0.00 in/hr0.0 mm/hr 0.02 in0.5 mm
02:45 AM 64.0°F17.8°C 64.0°F17.8°C 100% 3.2 mph SSW5.1 kmh SSW 6.2 mph10.0 kmh 29.78 in1008.5 mb 0.00 in0.0 mm 0.00 in/hr0.0 mm/hr 0.02 in0.5 mm
02:40 AM 64.0°F17.8°C 64.0°F17.8°C 100% 2.6 mph SSW4.2 kmh SSW 4.0 mph6.4 kmh 29.78 in1008.5 mb 0.00 in0.0 mm 0.00 in/hr0.0 mm/hr 0.02 in0.5 mm
02:35 AM 64.0°F17.8°C 64.0°F17.8°C 100% 1.9 mph SSW3.1 kmh SSW 3.0 mph4.8 kmh 29.79 in1008.8 mb 0.00 in0.0 mm 0.00 in/hr0.0 mm/hr 0.02 in0.5 mm
02:30 AM 64.0°F17.8°C 64.0°F17.8°C 100% 2.4 mph SSW3.9 kmh SSW 3.5 mph5.6 kmh 29.78 in1008.5 mb 0.00 in0.0 mm 0.00 in/hr0.0 mm/hr 0.02 in0.5 mm
02:25 AM 64.0°F17.8°C 64.0°F17.8°C 100% 1.4 mph SSW2.3 kmh SSW 4.0 mph6.4 kmh 29.78 in1008.5 mb 0.00 in0.0 mm 0.00 in/hr0.0 mm/hr 0.02 in0.5 mm
02:20 AM 64.0°F17.8°C 64.0°F17.8°C 100% 2.3 mph SSW3.7 kmh SSW 3.2 mph5.1 kmh 29.78 in1008.5 mb 0.00 in0.0 mm 0.00 in/hr0.0 mm/hr 0.02 in0.5 mm
02:15 AM 64.0°F17.8°C 64.0°F17.8°C 100% 1.0 mph SW1.6 kmh SW 3.5 mph5.6 kmh 29.78 in1008.5 mb 0.00 in0.0 mm 0.00 in/hr0.0 mm/hr 0.02 in0.5 mm
02:10 AM 64.0°F17.8°C 64.0°F17.8°C 100% 2.4 mph SSW3.9 kmh SSW 5.4 mph8.7 kmh 29.78 in1008.5 mb 0.00 in0.0 mm 0.00 in/hr0.0 mm/hr 0.02 in0.5 mm
02:05 AM 64.0°F17.8°C 64.0°F17.8°C 100% 2.5 mph SSW4.0 kmh SSW 4.2 mph6.8 kmh 29.79 in1008.8 mb 0.00 in0.0 mm 0.00 in/hr0.0 mm/hr 0.01 in0.3 mm
02:00 AM 64.0°F17.8°C 64.0°F17.8°C 100% 3.1 mph SSW5.0 kmh SSW 4.7 mph7.6 kmh 29.79 in1008.8 mb 0.00 in0.0 mm 0.00 in/hr0.0 mm/hr 0.01 in0.3 mm
01:55 AM 64.0°F17.8°C 64.0°F17.8°C 100% 3.3 mph SSW5.3 kmh SSW 4.9 mph7.9 kmh 29.79 in1008.8 mb 0.00 in0.0 mm 0.00 in/hr0.0 mm/hr 0.01 in0.3 mm
01:50 AM 64.0°F17.8°C 64.0°F17.8°C 100% 3.7 mph SSW6.0 kmh SSW 7.5 mph12.1 kmh 29.79 in1008.8 mb 0.00 in0.0 mm 0.00 in/hr0.0 mm/hr 0.00 in0.0 mm
01:45 AM 64.0°F17.8°C 64.0°F17.8°C 100% 3.4 mph SW5.5 kmh SW 5.5 mph8.9 kmh 29.79 in1008.8 mb 0.00 in0.0 mm 0.00 in/hr0.0 mm/hr 0.00 in0.0 mm
01:40 AM 63.9°F17.7°C 63.9°F17.7°C 100% 3.3 mph SW5.3 kmh SW 5.7 mph9.2 kmh 29.79 in1008.8 mb 0.00 in0.0 mm 0.00 in/hr0.0 mm/hr 0.00 in0.0 mm
01:35 AM 63.7°F17.6°C 63.7°F17.6°C 100% 3.5 mph WSW5.6 kmh WSW 7.5 mph12.1 kmh 29.79 in1008.8 mb 0.00 in0.0 mm 0.00 in/hr0.0 mm/hr 0.00 in0.0 mm
01:30 AM 63.6°F17.6°C 63.6°F17.6°C 100% 3.0 mph SW4.8 kmh SW 6.7 mph10.8 kmh 29.79 in1008.8 mb 0.00 in0.0 mm 0.00 in/hr0.0 mm/hr 0.00 in0.0 mm
01:25 AM 63.6°F17.6°C 63.6°F17.6°C 100% 0.4 mph SSW0.6 kmh SSW 1.6 mph2.6 kmh 29.80 in1009.1 mb 0.00 in0.0 mm 0.00 in/hr0.0 mm/hr 0.00 in0.0 mm
01:20 AM 63.6°F17.6°C 63.6°F17.6°C 100% 0.8 mph SSW1.3 kmh SSW 4.4 mph7.1 kmh 29.79 in1008.8 mb 0.00 in0.0 mm 0.00 in/hr0.0 mm/hr 0.00 in0.0 mm
01:15 AM 63.5°F17.5°C 63.5°F17.5°C 100% 1.5 mph SW2.4 kmh SW 3.5 mph5.6 kmh 29.79 in1008.8 mb 0.00 in0.0 mm 0.00 in/hr0.0 mm/hr 0.00 in0.0 mm
01:10 AM 63.3°F17.4°C 63.3°F17.4°C 100% 0.2 mph SSE0.3 kmh SSE 1.8 mph2.9 kmh 29.80 in1009.1 mb 0.00 in0.0 mm 0.00 in/hr0.0 mm/hr 0.00 in0.0 mm
01:05 AM 63.2°F17.3°C 63.2°F17.3°C 100% Calm Calm -- 29.80 in1009.1 mb 0.00 in0.0 mm 0.00 in/hr0.0 mm/hr 0.00 in0.0 mm
01:00 AM 63.2°F17.3°C 63.2°F17.3°C 100% Calm Calm -- 29.80 in1009.1 mb 0.00 in0.0 mm 0.00 in/hr0.0 mm/hr 0.00 in0.0 mm
12:55 AM 63.2°F17.3°C 63.2°F17.3°C 100% Calm Calm -- 29.79 in1008.8 mb 0.00 in0.0 mm 0.00 in/hr0.0 mm/hr 0.00 in0.0 mm
12:50 AM 63.2°F17.3°C 63.2°F17.3°C 100% Calm Calm -- 29.79 in1008.8 mb 0.00 in0.0 mm 0.00 in/hr0.0 mm/hr 0.00 in0.0 mm
12:45 AM 63.2°F17.3°C 63.2°F17.3°C 100% Calm Calm -- 29.79 in1008.8 mb 0.00 in0.0 mm 0.00 in/hr0.0 mm/hr 0.00 in0.0 mm
12:40 AM 63.3°F17.4°C 63.3°F17.4°C 100% Calm Calm -- 29.80 in1009.1 mb 0.00 in0.0 mm 0.00 in/hr0.0 mm/hr 0.00 in0.0 mm
12:35 AM 63.4°F17.4°C 63.4°F17.4°C 100% Calm Calm -- 29.80 in1009.1 mb 0.00 in0.0 mm 0.00 in/hr0.0 mm/hr 0.00 in0.0 mm
12:30 AM 63.2°F17.3°C 63.2°F17.3°C 100% Calm Calm -- 29.80 in1009.1 mb 0.00 in0.0 mm 0.00 in/hr0.0 mm/hr 0.00 in0.0 mm
12:25 AM 63.2°F17.3°C 63.2°F17.3°C 100% Calm Calm -- 29.81 in1009.5 mb 0.00 in0.0 mm 0.00 in/hr0.0 mm/hr 0.00 in0.0 mm
12:20 AM 63.3°F17.4°C 63.3°F17.4°C 100% Calm Calm -- 29.81 in1009.5 mb 0.00 in0.0 mm 0.00 in/hr0.0 mm/hr 0.00 in0.0 mm
12:15 AM 63.2°F17.3°C 63.2°F17.3°C 100% Calm Calm -- 29.81 in1009.5 mb 0.00 in0.0 mm 0.00 in/hr0.0 mm/hr 0.00 in0.0 mm
12:10 AM 63.2°F17.3°C 63.2°F17.3°C 100% Calm Calm -- 29.81 in1009.5 mb 0.00 in0.0 mm 0.00 in/hr0.0 mm/hr 0.00 in0.0 mm
12:05 AM 63.2°F17.3°C 63.2°F17.3°C 100% 0.5 mph SSW0.8 kmh SSW 1.8 mph2.9 kmh 29.80 in1009.1 mb 0.00 in0.0 mm 0.00 in/hr0.0 mm/hr 0.00 in0.0 mm
12:00 AM 63.2°F17.3°C 63.2°F17.3°C 100% 0.5 mph SSW0.8 kmh SSW 1.6 mph2.6 kmh 29.80 in1009.1 mb 0.00 in0.0 mm 0.00 in/hr0.0 mm/hr 0.06 in1.5 mm
WeatherForYou.com, LLC is not responsible for any damages or problems caused by this service. Current weather conditions are obtained from the closest station including government and personal stations which may have varying degrees of accuracy. Weather forecasts are derived from the NOAA NDFD and obtained through HAMweather's Aeris Weather API. Like all things, this site belongs to Jesus Christ... He just trusts me to maintain it. If you have any questions or comments email webmaster@weatherforyou.com

Copyright © 2014, WeatherForYou.com LLC. All rights reserved.